KSLN/SLN METAR and TAF weather

Enter ICAO airport designator
Station Type Date Time Source
KSLN METAR 2020/02/25 11:53 UTC NOAA

KSLN 251153Z AUTO 02008KT 9SM OVC041 01/M03 A2992 RMK AO2 SNB41E53 SLP137 P0000 60000 70005 T00111028 10028 20006 53013


Station Type Date Time Source
KSLN Decoded METAR 2020/02/25 11:53 UTC NOAA

SALINA MUNICIPAL AIRPORT, KS, United States (KSLN) 38-47N 97-39W 385M
Feb 25, 2020 - 06:53 AM EST / 2020.02.25 1153 UTC
Wind: from the NNE (020 degrees) at 9 MPH (8 KT):0
Visibility: 9 mile(s):0
Sky conditions: overcast
Precipitation last hour: A trace
Temperature: 34.0 F (1.1 C)
Windchill: 26 F (-3 C):1
Dew Point: 27.0 F (-2.8 C)
Relative Humidity: 75%
Pressure (altimeter): 29.92 in. Hg (1013 hPa)
Pressure tendency: 0.04 inches (1.3 hPa) higher than three hours ago
ob: KSLN 251153Z AUTO 02008KT 9SM OVC041 01/M03 A2992 RMK AO2 SNB41E53 SLP137 P0000 60000 70005 T00111028 10028 20006 53013
cycle: 12

Station Type Date Time Source
KSLN TAF 2020/02/25 12:58 UTC NOAA

TAF
AMD KSLN 251157Z 2512/2612 03007KT P6SM SCT015 OVC040
FM251230 03007KT 3SM -SN OVC015
FM251500 01010KT 4SM -SN OVC008
FM251700 01014G22KT 2SM -SN OVC015
FM252000 36020G28KT 5SM -SN OVC030
FM260600 35017G25KT P6SM BKN035
FM261100 34015G23KT P6SM BKN045

Example: see airport list